createdAt,value
2022-08-27T00:01:26.500Z,96202.47
2022-08-27T00:03:55.654Z,96200.84
2022-08-27T00:06:24.186Z,96199.53
2022-08-27T00:08:52.923Z,96195.44
2022-08-27T00:11:22.203Z,96198.84
2022-08-27T00:13:49.680Z,96212.16
2022-08-27T00:16:18.236Z,96203.53
2022-08-27T00:18:48.196Z,96200.41
2022-08-27T00:21:18.034Z,96211.16
2022-08-27T00:23:45.433Z,96210.41
2022-08-27T00:26:14.072Z,96207.69
2022-08-27T00:28:42.853Z,96204.00
2022-08-27T00:31:12.457Z,96204.19
2022-08-27T00:33:40.997Z,96206.50
2022-08-27T00:36:08.700Z,96195.91
2022-08-27T00:38:36.813Z,96196.72
2022-08-27T00:41:04.622Z,96194.44
2022-08-27T00:43:49.230Z,96205.00
2022-08-27T00:46:25.823Z,96200.59
2022-08-27T00:48:57.224Z,96191.44
2022-08-27T00:51:25.233Z,96191.44
2022-08-27T00:53:54.493Z,96185.72
2022-08-27T00:56:25.467Z,96186.47
2022-08-27T00:58:55.526Z,96185.06
2022-08-27T01:01:29.465Z,96189.16
2022-08-27T01:04:06.089Z,96196.97
2022-08-27T01:06:37.414Z,96202.28
2022-08-27T01:09:13.706Z,96186.69
2022-08-27T01:11:41.370Z,96192.69
2022-08-27T01:14:09.044Z,96176.22
2022-08-27T01:16:40.425Z,96184.06
2022-08-27T01:19:14.683Z,96176.22
2022-08-27T01:22:00.144Z,96165.16
2022-08-27T01:24:44.901Z,96171.94
2022-08-27T01:27:18.036Z,96175.28
2022-08-27T01:29:45.797Z,96186.25
2022-08-27T01:32:17.785Z,96178.72
2022-08-27T01:34:45.627Z,96183.19
2022-08-27T01:37:14.656Z,96170.84
2022-08-27T01:39:44.647Z,96168.13
2022-08-27T01:42:19.539Z,96177.75
2022-08-27T01:44:57.724Z,96187.56
2022-08-27T01:47:30.725Z,96195.19
2022-08-27T01:50:00.235Z,96189.09
2022-08-27T01:52:29.984Z,96194.47
2022-08-27T01:54:57.901Z,96195.56
2022-08-27T01:57:26.338Z,96196.66
2022-08-27T01:59:55.106Z,96202.88
2022-08-27T02:02:22.823Z,96217.81
2022-08-27T02:04:51.954Z,96232.28
2022-08-27T02:07:19.015Z,96235.44
2022-08-27T02:09:46.424Z,96241.13
2022-08-27T02:12:13.916Z,96236.72
2022-08-27T02:14:41.110Z,96234.25
2022-08-27T02:17:12.677Z,96234.88
2022-08-27T02:19:39.877Z,96239.25
2022-08-27T02:22:07.342Z,96240.56
2022-08-27T02:24:34.796Z,96250.47
2022-08-27T02:27:02.704Z,96254.94
2022-08-27T02:29:30.049Z,96244.69
2022-08-27T02:31:57.463Z,96245.91
2022-08-27T02:34:24.647Z,96246.06
2022-08-27T02:36:54.055Z,96234.53
2022-08-27T02:39:21.906Z,96232.59
2022-08-27T02:41:49.650Z,96232.13
2022-08-27T02:44:16.838Z,96227.72
2022-08-27T02:46:44.519Z,96241.34
2022-08-27T02:49:11.722Z,96239.47
2022-08-27T02:51:39.164Z,96233.44
2022-08-27T02:54:09.427Z,96241.63
2022-08-27T02:56:37.861Z,96251.84
2022-08-27T02:59:05.405Z,96231.88
2022-08-27T03:01:32.968Z,96238.63
2022-08-27T03:04:01.361Z,96230.56
2022-08-27T03:06:30.402Z,96233.31
2022-08-27T03:08:57.916Z,96233.94
2022-08-27T03:11:25.445Z,96217.47
2022-08-27T03:13:53.030Z,96213.38
2022-08-27T03:16:20.699Z,96209.03
2022-08-27T03:18:47.919Z,96209.88
2022-08-27T03:21:20.291Z,96207.53
2022-08-27T03:23:48.911Z,96208.66
2022-08-27T03:26:16.731Z,96198.66
2022-08-27T03:28:44.905Z,96180.97
2022-08-27T03:31:20.862Z,96180.16
2022-08-27T03:33:48.262Z,96189.75
2022-08-27T03:36:15.359Z,96190.22
2022-08-27T03:38:42.589Z,96202.94
2022-08-27T03:41:10.205Z,96203.38
2022-08-27T03:43:37.431Z,96200.84
2022-08-27T03:46:05.339Z,96195.91
2022-08-27T03:48:34.421Z,96201.69
2022-08-27T03:51:11.155Z,96202.53
2022-08-27T03:53:40.334Z,96206.13
2022-08-27T03:56:08.412Z,96201.00
2022-08-27T03:58:37.317Z,96197.91
2022-08-27T04:01:07.156Z,96191.91
2022-08-27T04:03:35.705Z,96182.03
2022-08-27T04:06:03.826Z,96183.69
2022-08-27T04:08:30.974Z,96176.94
2022-08-27T04:10:58.199Z,96170.63
2022-08-27T04:13:25.751Z,96169.13
2022-08-27T04:15:55.894Z,96177.13
2022-08-27T04:18:23.672Z,96166.09
2022-08-27T04:20:52.973Z,96168.94
2022-08-27T04:23:20.847Z,96172.53
2022-08-27T04:25:48.783Z,96162.84
2022-08-27T04:28:16.917Z,96164.44
2022-08-27T04:30:46.772Z,96162.69
2022-08-27T04:33:15.174Z,96153.66
2022-08-27T04:35:42.493Z,96168.13
2022-08-27T04:38:10.081Z,96163.69
2022-08-27T04:40:56.943Z,96169.09
2022-08-27T04:43:24.232Z,96179.84
2022-08-27T04:45:51.337Z,96186.91
2022-08-27T04:48:19.823Z,96182.69
2022-08-27T04:50:48.715Z,96187.63
2022-08-27T04:53:18.017Z,96187.59
2022-08-27T04:55:50.954Z,96180.47
2022-08-27T04:58:21.011Z,96185.84
2022-08-27T05:00:53.144Z,96191.97
2022-08-27T05:03:24.420Z,96196.38
2022-08-27T05:05:53.954Z,96200.38
2022-08-27T05:08:21.087Z,96204.81
2022-08-27T05:10:49.819Z,96215.78
2022-08-27T05:13:19.217Z,96215.00
2022-08-27T05:15:46.761Z,96218.56
2022-08-27T05:18:14.961Z,96212.91
2022-08-27T05:20:46.260Z,96216.91
2022-08-27T05:23:17.437Z,96222.19
2022-08-27T05:25:46.953Z,96217.66
2022-08-27T05:28:15.608Z,96225.13
2022-08-27T05:30:52.222Z,96225.13
2022-08-27T05:33:25.864Z,96232.03
2022-08-27T05:35:57.890Z,96222.13
2022-08-27T05:38:27.247Z,96232.91
2022-08-27T05:41:12.483Z,96233.75
2022-08-27T05:43:42.473Z,96239.75
2022-08-27T05:46:15.406Z,96235.75
2022-08-27T05:48:43.574Z,96236.28
2022-08-27T05:51:25.312Z,96235.53
2022-08-27T05:54:09.059Z,96231.75
2022-08-27T05:56:38.555Z,96237.16
2022-08-27T05:59:24.883Z,96234.31
2022-08-27T06:01:55.459Z,96228.28
2022-08-27T06:04:25.527Z,96232.16
2022-08-27T06:06:53.660Z,96233.94
2022-08-27T06:09:26.940Z,96231.00
2022-08-27T06:11:57.011Z,96236.69
2022-08-27T06:14:24.741Z,96236.47
2022-08-27T06:16:52.605Z,96233.22
2022-08-27T06:19:20.613Z,96236.34
2022-08-27T06:22:01.300Z,96235.22
2022-08-27T06:24:36.347Z,96244.28
2022-08-27T06:27:04.177Z,96239.31
2022-08-27T06:29:31.679Z,96237.09
2022-08-27T06:31:59.044Z,96235.84
2022-08-27T06:34:26.442Z,96241.09
2022-08-27T06:36:54.626Z,96239.19
2022-08-27T06:39:22.106Z,96227.72
2022-08-27T06:41:50.470Z,96230.16
2022-08-27T06:44:22.441Z,96230.88
2022-08-27T06:46:50.605Z,96237.34
2022-08-27T06:49:17.799Z,96247.75
2022-08-27T06:51:48.115Z,96253.22
2022-08-27T06:54:16.339Z,96254.16
2022-08-27T06:56:44.803Z,96253.06
2022-08-27T06:59:15.826Z,96254.44
2022-08-27T07:01:46.660Z,96248.53
2022-08-27T07:04:19.577Z,96244.03
2022-08-27T07:06:47.583Z,96252.94
2022-08-27T07:09:15.037Z,96250.72
2022-08-27T07:11:43.236Z,96252.41
2022-08-27T07:14:10.740Z,96258.94
2022-08-27T07:16:40.217Z,96262.44
2022-08-27T07:19:08.253Z,96261.03
2022-08-27T07:21:36.449Z,96249.44
2022-08-27T07:24:05.822Z,96251.59
2022-08-27T07:26:35.258Z,96254.44
2022-08-27T07:29:06.183Z,96248.72
2022-08-27T07:31:35.933Z,96251.69
2022-08-27T07:34:05.187Z,96256.31
2022-08-27T07:36:33.726Z,96257.97
2022-08-27T07:39:01.852Z,96263.69
2022-08-27T07:41:53.509Z,96258.25
2022-08-27T07:44:34.198Z,96265.41
2022-08-27T07:47:02.657Z,96265.56
2022-08-27T07:49:32.085Z,96272.53
2022-08-27T07:51:59.509Z,96269.78
2022-08-27T07:54:27.155Z,96272.53
2022-08-27T07:56:56.121Z,96278.97
2022-08-27T07:59:25.048Z,96263.25
2022-08-27T08:01:55.889Z,96267.97
2022-08-27T08:04:23.194Z,96276.88
2022-08-27T08:06:51.733Z,96264.81
2022-08-27T08:09:19.727Z,96270.19
2022-08-27T08:11:47.002Z,96274.72
2022-08-27T08:14:14.239Z,96281.78
2022-08-27T08:16:41.946Z,96284.66
2022-08-27T08:19:09.562Z,96292.91
2022-08-27T08:21:38.303Z,96286.38
2022-08-27T08:24:06.209Z,96283.09
2022-08-27T08:26:34.116Z,96280.38
2022-08-27T08:29:04.784Z,96295.84
2022-08-27T08:31:33.407Z,96298.94
2022-08-27T08:34:01.014Z,96303.38
2022-08-27T08:36:31.348Z,96303.69
2022-08-27T08:38:59.183Z,96299.19
2022-08-27T08:41:50.901Z,96291.13
2022-08-27T08:44:38.001Z,96288.81
2022-08-27T08:47:11.755Z,96296.44
2022-08-27T08:49:57.934Z,96308.91
2022-08-27T08:52:42.731Z,96313.66
2022-08-27T08:55:31.582Z,96304.38
2022-08-27T08:58:17.294Z,96300.56
2022-08-27T09:00:46.712Z,96295.25
2022-08-27T09:03:15.895Z,96301.03
2022-08-27T09:05:49.994Z,96304.13
2022-08-27T09:08:36.581Z,96300.66
2022-08-27T09:11:15.524Z,96313.16
2022-08-27T09:13:49.824Z,96310.81
2022-08-27T09:16:19.164Z,96320.34
2022-08-27T09:18:51.225Z,96313.09
2022-08-27T09:21:38.019Z,96317.19
2022-08-27T09:24:14.133Z,96322.69
2022-08-27T09:26:43.295Z,96321.22
2022-08-27T09:29:22.271Z,96330.94
2022-08-27T09:32:08.764Z,96334.09
2022-08-27T09:34:43.134Z,96324.91
2022-08-27T09:37:22.684Z,96318.78
2022-08-27T09:40:23.003Z,96327.13
2022-08-27T09:42:54.231Z,96326.22
2022-08-27T09:45:28.164Z,96331.16
2022-08-27T09:48:07.729Z,96335.59
2022-08-27T09:50:48.789Z,96330.66
2022-08-27T09:53:26.580Z,96323.47
2022-08-27T09:55:59.216Z,96317.81
2022-08-27T09:58:45.276Z,96315.91
2022-08-27T10:01:21.501Z,96320.09
2022-08-27T10:03:50.041Z,96316.78
2022-08-27T10:06:31.932Z,96318.19
2022-08-27T10:09:13.933Z,96301.75
2022-08-27T10:12:00.736Z,96302.03
2022-08-27T10:14:40.856Z,96308.78
2022-08-27T10:17:27.340Z,96314.44
2022-08-27T10:20:25.814Z,96311.50
2022-08-27T10:23:30.038Z,96309.94
2022-08-27T10:26:08.412Z,96313.00
2022-08-27T10:29:08.670Z,96315.03
2022-08-27T10:32:05.753Z,96328.50
2022-08-27T10:34:57.400Z,96319.78
2022-08-27T10:37:24.814Z,96314.97
2022-08-27T10:40:10.482Z,96319.13
2022-08-27T10:43:00.850Z,96314.38
2022-08-27T10:45:35.262Z,96311.59
2022-08-27T10:48:24.755Z,96318.63
2022-08-27T10:51:02.196Z,96310.78
2022-08-27T10:53:44.590Z,96313.69
2022-08-27T10:56:26.615Z,96313.34
2022-08-27T10:59:22.442Z,96316.25
2022-08-27T11:01:58.503Z,96319.56
2022-08-27T11:04:31.782Z,96320.13
2022-08-27T11:07:18.544Z,96312.44
2022-08-27T11:10:00.984Z,96307.09
2022-08-27T11:12:34.098Z,96314.28
2022-08-27T11:15:30.481Z,96313.69
2022-08-27T11:18:21.689Z,96319.06
2022-08-27T11:20:55.570Z,96305.44
2022-08-27T11:23:34.087Z,96306.56
2022-08-27T11:26:05.050Z,96306.75
2022-08-27T11:28:39.034Z,96305.66
2022-08-27T11:31:31.035Z,96306.94
2022-08-27T11:34:05.910Z,96303.63
2022-08-27T11:36:54.173Z,96291.91
2022-08-27T11:39:37.217Z,96294.78
2022-08-27T11:42:10.061Z,96297.53
2022-08-27T11:44:44.776Z,96306.38
2022-08-27T11:47:30.319Z,96300.69
2022-08-27T11:50:01.872Z,96309.09
2022-08-27T11:52:53.613Z,96293.97
2022-08-27T11:55:36.911Z,96290.91
2022-08-27T11:58:33.133Z,96297.53
2022-08-27T12:01:30.113Z,96302.50
2022-08-27T12:04:21.169Z,96302.28
2022-08-27T12:07:02.267Z,96294.47
2022-08-27T12:09:44.027Z,96306.31
2022-08-27T12:12:25.145Z,96300.59
2022-08-27T12:15:08.515Z,96294.81
2022-08-27T12:17:48.768Z,96297.75
2022-08-27T12:20:24.911Z,96303.06
2022-08-27T12:23:44.338Z,96294.03
2022-08-27T12:26:27.072Z,96288.06
2022-08-27T12:29:27.868Z,96278.28
2022-08-27T12:32:24.793Z,96283.78
2022-08-27T12:34:59.798Z,96282.66
2022-08-27T12:37:32.332Z,96289.28
2022-08-27T12:40:03.966Z,96281.38
2022-08-27T12:42:31.505Z,96279.25
2022-08-27T12:45:00.118Z,96285.00
2022-08-27T12:47:27.899Z,96279.09
2022-08-27T12:49:59.381Z,96269.88
2022-08-27T12:52:35.186Z,96264.63
2022-08-27T12:55:30.347Z,96265.31
2022-08-27T12:58:19.526Z,96259.88
2022-08-27T13:00:50.146Z,96250.63
2022-08-27T13:03:29.603Z,96251.91
2022-08-27T13:06:02.393Z,96247.19
2022-08-27T13:08:35.659Z,96257.28
2022-08-27T13:11:27.204Z,96251.03
2022-08-27T13:14:12.970Z,96253.97
2022-08-27T13:16:54.777Z,96253.47
2022-08-27T13:19:45.059Z,96245.91
2022-08-27T13:22:22.276Z,96244.09
2022-08-27T13:24:52.201Z,96241.91
2022-08-27T13:27:29.191Z,96240.31
2022-08-27T13:29:59.453Z,96252.19
2022-08-27T13:32:30.279Z,96245.19
2022-08-27T13:34:59.847Z,96252.97
2022-08-27T13:37:37.547Z,96249.22
2022-08-27T13:40:06.437Z,96243.94
2022-08-27T13:42:35.509Z,96252.53
2022-08-27T13:45:06.531Z,96242.72
2022-08-27T13:47:45.583Z,96248.56
2022-08-27T13:53:12.380Z,96236.47
2022-08-27T13:55:50.012Z,96237.09
2022-08-27T13:58:38.302Z,96236.06
2022-08-27T14:01:16.280Z,96228.25
2022-08-27T14:03:59.337Z,96233.72
2022-08-27T14:06:36.061Z,96227.19
2022-08-27T14:09:31.703Z,96221.81
2022-08-27T14:12:03.872Z,96227.41
2022-08-27T14:14:37.602Z,96227.34
2022-08-27T14:17:09.248Z,96226.63
2022-08-27T14:19:40.353Z,96228.47
2022-08-27T14:22:08.256Z,96228.97
2022-08-27T14:24:36.647Z,96235.25
2022-08-27T14:27:14.584Z,96231.22
2022-08-27T14:29:42.482Z,96232.06
2022-08-27T14:32:10.980Z,96237.28
2022-08-27T14:34:38.381Z,96238.44
2022-08-27T14:37:08.109Z,96231.16
2022-08-27T14:39:35.773Z,96231.38
2022-08-27T14:42:02.923Z,96234.09
2022-08-27T14:44:32.694Z,96232.00
2022-08-27T14:47:00.452Z,96229.81
2022-08-27T14:49:32.498Z,96220.56
2022-08-27T14:52:00.000Z,96219.00
2022-08-27T14:54:29.196Z,96230.19
2022-08-27T14:57:03.149Z,96228.50
2022-08-27T14:59:30.749Z,96236.03
2022-08-27T15:02:00.189Z,96228.53
2022-08-27T15:04:30.858Z,96227.81
2022-08-27T15:06:58.647Z,96230.06
2022-08-27T15:09:27.829Z,96235.13
2022-08-27T15:11:57.516Z,96234.41
2022-08-27T15:14:33.990Z,96229.28
2022-08-27T15:17:01.373Z,96228.19
2022-08-27T15:19:29.925Z,96237.75
2022-08-27T15:22:16.952Z,96232.63
2022-08-27T15:24:54.355Z,96232.63
2022-08-27T15:27:22.360Z,96223.78
2022-08-27T15:29:57.480Z,96230.06
2022-08-27T15:32:36.554Z,96228.06
2022-08-27T15:35:08.512Z,96219.13
2022-08-27T15:37:36.356Z,96221.56
2022-08-27T15:40:04.983Z,96223.47
2022-08-27T15:42:32.436Z,96219.56
2022-08-27T15:45:00.003Z,96214.34
2022-08-27T15:47:27.613Z,96224.88
2022-08-27T15:49:55.042Z,96227.34
2022-08-27T15:52:23.765Z,96218.81
2022-08-27T15:54:51.718Z,96220.81
2022-08-27T15:57:20.877Z,96215.09
2022-08-27T15:59:48.703Z,96225.16
2022-08-27T16:02:22.180Z,96216.38
2022-08-27T16:04:50.598Z,96212.75
2022-08-27T16:07:20.236Z,96212.44
2022-08-27T16:09:49.135Z,96214.75
2022-08-27T16:12:26.690Z,96216.03
2022-08-27T16:14:58.710Z,96211.78
2022-08-27T16:17:27.174Z,96219.59
2022-08-27T16:19:55.128Z,96218.16
2022-08-27T16:22:22.606Z,96224.25
2022-08-27T16:24:50.289Z,96219.22
2022-08-27T16:27:18.112Z,96219.06
2022-08-27T16:29:45.437Z,96224.16
2022-08-27T16:32:20.027Z,96224.22
2022-08-27T16:34:55.499Z,96231.09
2022-08-27T16:37:24.909Z,96230.66
2022-08-27T16:39:52.341Z,96233.47
2022-08-27T16:42:20.473Z,96236.81
2022-08-27T16:44:47.832Z,96232.69
2022-08-27T16:47:15.785Z,96228.16
2022-08-27T16:50:01.467Z,96229.13
2022-08-27T16:52:30.399Z,96221.41
2022-08-27T16:54:57.716Z,96226.34
2022-08-27T16:57:25.124Z,96229.94
2022-08-27T16:59:53.256Z,96229.06
2022-08-27T17:02:30.328Z,96236.41
2022-08-27T17:05:01.479Z,96229.13
2022-08-27T17:07:48.906Z,96238.09
2022-08-27T17:10:18.562Z,96234.00
2022-08-27T17:12:48.167Z,96225.56
2022-08-27T17:15:17.229Z,96225.25
2022-08-27T17:17:45.651Z,96230.28
2022-08-27T17:20:15.382Z,96224.84
2022-08-27T17:22:43.845Z,96232.09
2022-08-27T17:25:11.284Z,96234.69
2022-08-27T17:27:39.952Z,96232.31
2022-08-27T17:30:08.573Z,96238.19
2022-08-27T17:32:40.099Z,96226.06
2022-08-27T17:35:08.624Z,96239.44
2022-08-27T17:37:35.994Z,96238.94
2022-08-27T17:40:05.093Z,96251.63
2022-08-27T17:42:32.690Z,96249.41
2022-08-27T17:45:00.354Z,96254.31
2022-08-27T17:47:28.073Z,96260.91
2022-08-27T17:49:55.970Z,96258.34
2022-08-27T17:52:23.479Z,96259.81
2022-08-27T17:54:54.354Z,96258.34
2022-08-27T17:57:29.650Z,96261.59
2022-08-27T18:00:09.135Z,96268.88
2022-08-27T18:02:46.796Z,96270.28
2022-08-27T18:05:16.581Z,96264.56
2022-08-27T18:07:44.498Z,96262.84
2022-08-27T18:10:14.798Z,96271.63
2022-08-27T18:12:42.532Z,96267.88
2022-08-27T18:15:16.030Z,96268.09
2022-08-27T18:17:43.540Z,96272.59
2022-08-27T18:20:15.480Z,96279.84
2022-08-27T18:22:48.775Z,96279.41
2022-08-27T18:25:18.606Z,96285.00
2022-08-27T18:27:49.270Z,96281.66
2022-08-27T18:30:20.372Z,96290.16
2022-08-27T18:32:47.779Z,96294.69
2022-08-27T18:35:24.749Z,96284.78
2022-08-27T18:37:52.019Z,96301.06
2022-08-27T18:40:21.844Z,96304.38
2022-08-27T18:42:49.773Z,96304.31
2022-08-27T18:45:23.572Z,96307.84
2022-08-27T18:47:52.919Z,96315.06
2022-08-27T18:50:21.330Z,96313.69
2022-08-27T18:52:51.330Z,96314.44
2022-08-27T18:55:22.518Z,96315.44
2022-08-27T18:57:49.911Z,96308.53
2022-08-27T19:00:19.765Z,96313.84
2022-08-27T19:02:52.630Z,96324.72
2022-08-27T19:05:25.269Z,96330.66
2022-08-27T19:07:53.053Z,96331.28
2022-08-27T19:10:21.125Z,96329.19
2022-08-27T19:12:48.310Z,96333.69
2022-08-27T19:15:15.939Z,96334.13
2022-08-27T19:17:47.476Z,96340.16
2022-08-27T19:20:17.670Z,96346.25
2022-08-27T19:22:46.450Z,96352.34
2022-08-27T19:25:14.921Z,96352.44
2022-08-27T19:27:44.242Z,96349.81
2022-08-27T19:30:13.192Z,96351.50
2022-08-27T19:32:41.087Z,96356.63
2022-08-27T19:35:08.677Z,96357.41
2022-08-27T19:37:42.315Z,96351.84
2022-08-27T19:40:11.160Z,96359.63
2022-08-27T19:42:39.632Z,96360.69
2022-08-27T19:45:07.711Z,96364.44
2022-08-27T19:47:36.493Z,96373.22
2022-08-27T19:50:04.342Z,96373.00
2022-08-27T19:52:31.554Z,96367.00
2022-08-27T19:55:14.829Z,96368.00
2022-08-27T19:57:47.087Z,96361.50
2022-08-27T20:00:19.563Z,96368.69
2022-08-27T20:02:47.319Z,96369.72
2022-08-27T20:05:20.267Z,96366.78
2022-08-27T20:07:50.785Z,96367.84
2022-08-27T20:10:31.531Z,96371.03
2022-08-27T20:13:04.900Z,96372.34
2022-08-27T20:15:35.992Z,96368.56
2022-08-27T20:18:05.577Z,96375.22
2022-08-27T20:20:34.518Z,96382.28
2022-08-27T20:23:05.729Z,96384.03
2022-08-27T20:25:35.146Z,96394.59
2022-08-27T20:28:16.374Z,96406.16
2022-08-27T20:30:49.515Z,96388.84
2022-08-27T20:33:17.123Z,96390.41
2022-08-27T20:35:44.999Z,96393.31
2022-08-27T20:38:13.306Z,96399.63
2022-08-27T20:40:40.661Z,96400.66
2022-08-27T20:43:09.091Z,96407.94
2022-08-27T20:45:37.577Z,96412.25
2022-08-27T20:48:05.634Z,96404.88
2022-08-27T20:50:32.966Z,96406.28
2022-08-27T20:53:01.110Z,96413.53
2022-08-27T20:55:29.012Z,96413.34
2022-08-27T20:58:14.999Z,96404.44
2022-08-27T21:00:44.075Z,96399.97
2022-08-27T21:03:14.149Z,96405.41
2022-08-27T21:05:43.884Z,96408.25
2022-08-27T21:08:11.370Z,96411.50
2022-08-27T21:10:47.081Z,96416.75
2022-08-27T21:13:15.610Z,96411.59
2022-08-27T21:15:42.960Z,96413.59
2022-08-27T21:18:11.193Z,96408.63
2022-08-27T21:20:38.879Z,96402.72
2022-08-27T21:23:07.088Z,96407.69
2022-08-27T21:25:35.893Z,96411.44
2022-08-27T21:28:04.682Z,96405.78
2022-08-27T21:30:32.107Z,96406.50
2022-08-27T21:32:59.685Z,96416.56
2022-08-27T21:35:30.996Z,96397.63
2022-08-27T21:38:00.267Z,96400.06
2022-08-27T21:40:28.840Z,96392.94
2022-08-27T21:42:58.482Z,96394.25
2022-08-27T21:45:25.863Z,96397.16
2022-08-27T21:47:54.499Z,96400.22
2022-08-27T21:50:23.580Z,96397.00
2022-08-27T21:52:51.044Z,96396.81
2022-08-27T21:55:19.219Z,96398.06
2022-08-27T21:57:46.906Z,96397.59
2022-08-27T22:00:28.048Z,96392.72
2022-08-27T22:02:56.440Z,96389.38
2022-08-27T22:05:24.763Z,96391.03
2022-08-27T22:07:52.115Z,96388.38
2022-08-27T22:10:19.340Z,96386.69
2022-08-27T22:12:47.033Z,96390.44
2022-08-27T22:15:14.462Z,96396.81
2022-08-27T22:17:42.036Z,96391.84
2022-08-27T22:20:09.929Z,96375.75
2022-08-27T22:22:37.315Z,96380.97
2022-08-27T22:25:05.930Z,96370.66
2022-08-27T22:27:33.250Z,96376.91
2022-08-27T22:30:00.721Z,96373.56
2022-08-27T22:32:29.537Z,96368.34
2022-08-27T22:34:56.675Z,96365.59
2022-08-27T22:37:23.960Z,96367.97
2022-08-27T22:39:51.308Z,96365.53
2022-08-27T22:42:19.747Z,96360.94
2022-08-27T22:44:47.278Z,96375.97
2022-08-27T22:47:15.289Z,96368.34
2022-08-27T22:49:44.190Z,96382.84
2022-08-27T22:52:11.859Z,96375.66
2022-08-27T22:54:39.109Z,96377.66
2022-08-27T22:57:07.013Z,96380.03
2022-08-27T22:59:39.126Z,96371.31
2022-08-27T23:02:09.633Z,96378.19
2022-08-27T23:04:54.055Z,96368.06
2022-08-27T23:07:23.707Z,96378.09
2022-08-27T23:09:51.028Z,96379.16
2022-08-27T23:12:20.100Z,96378.72
2022-08-27T23:14:47.588Z,96379.00
2022-08-27T23:17:16.307Z,96380.03
2022-08-27T23:19:43.831Z,96378.53
2022-08-27T23:22:11.201Z,96381.06
2022-08-27T23:25:00.992Z,96384.63
2022-08-27T23:27:31.009Z,96371.81
2022-08-27T23:30:00.637Z,96375.75
2022-08-27T23:32:28.863Z,96372.84
2022-08-27T23:34:57.140Z,96377.91
2022-08-27T23:37:25.067Z,96382.47
2022-08-27T23:39:52.387Z,96373.06
2022-08-27T23:42:19.701Z,96380.34
2022-08-27T23:44:49.191Z,96384.31
2022-08-27T23:47:17.970Z,96382.09
2022-08-27T23:49:45.108Z,96381.66
2022-08-27T23:52:13.302Z,96392.34
2022-08-27T23:54:43.539Z,96391.84
2022-08-27T23:57:10.750Z,96387.41
2022-08-27T23:59:37.982Z,96388.66
